sensor_id;sensor_type;location;lat;lon;timestamp;P1;durP1;ratioP1;P2;durP2;ratioP2
10801;SDS011;5453;50.852;7.102;2023-08-07T00:00:46;5.90;;;2.30;;
10801;SDS011;5453;50.852;7.102;2023-08-07T00:03:21;5.03;;;1.65;;
10801;SDS011;5453;50.852;7.102;2023-08-07T00:05:54;6.95;;;1.73;;
10801;SDS011;5453;50.852;7.102;2023-08-07T00:08:27;7.97;;;1.70;;
10801;SDS011;5453;50.852;7.102;2023-08-07T00:11:05;5.07;;;1.85;;
10801;SDS011;5453;50.852;7.102;2023-08-07T00:13:41;6.72;;;2.00;;
10801;SDS011;5453;50.852;7.102;2023-08-07T00:16:13;5.38;;;1.75;;
10801;SDS011;5453;50.852;7.102;2023-08-07T00:18:45;7.30;;;1.95;;
10801;SDS011;5453;50.852;7.102;2023-08-07T00:21:18;6.43;;;1.80;;
10801;SDS011;5453;50.852;7.102;2023-08-07T00:23:51;6.00;;;1.85;;
10801;SDS011;5453;50.852;7.102;2023-08-07T00:26:25;7.72;;;1.98;;
10801;SDS011;5453;50.852;7.102;2023-08-07T00:28:57;4.30;;;1.88;;
10801;SDS011;5453;50.852;7.102;2023-08-07T00:31:30;6.25;;;1.90;;
10801;SDS011;5453;50.852;7.102;2023-08-07T00:34:02;6.85;;;2.67;;
10801;SDS011;5453;50.852;7.102;2023-08-07T00:36:34;3.72;;;1.70;;
10801;SDS011;5453;50.852;7.102;2023-08-07T00:39:08;10.50;;;2.33;;
10801;SDS011;5453;50.852;7.102;2023-08-07T00:41:43;10.15;;;2.42;;
10801;SDS011;5453;50.852;7.102;2023-08-07T00:44:16;6.65;;;1.88;;
10801;SDS011;5453;50.852;7.102;2023-08-07T00:46:48;5.15;;;1.48;;
10801;SDS011;5453;50.852;7.102;2023-08-07T00:49:21;8.65;;;2.13;;
10801;SDS011;5453;50.852;7.102;2023-08-07T00:51:54;9.48;;;2.88;;
10801;SDS011;5453;50.852;7.102;2023-08-07T00:54:28;7.28;;;1.60;;
10801;SDS011;5453;50.852;7.102;2023-08-07T00:57:02;4.97;;;1.77;;
10801;SDS011;5453;50.852;7.102;2023-08-07T00:59:42;5.45;;;1.88;;
10801;SDS011;5453;50.852;7.102;2023-08-07T01:02:15;6.15;;;1.80;;
10801;SDS011;5453;50.852;7.102;2023-08-07T01:04:48;6.22;;;1.90;;
10801;SDS011;5453;50.852;7.102;2023-08-07T01:07:21;6.78;;;2.00;;
10801;SDS011;5453;50.852;7.102;2023-08-07T01:09:55;7.43;;;2.10;;
10801;SDS011;5453;50.852;7.102;2023-08-07T01:12:36;5.40;;;2.25;;
10801;SDS011;5453;50.852;7.102;2023-08-07T01:15:19;6.53;;;1.92;;
10801;SDS011;5453;50.852;7.102;2023-08-07T01:17:58;7.82;;;1.85;;
10801;SDS011;5453;50.852;7.102;2023-08-07T01:20:31;6.47;;;1.92;;
10801;SDS011;5453;50.852;7.102;2023-08-07T01:23:06;7.68;;;1.55;;
10801;SDS011;5453;50.852;7.102;2023-08-07T01:25:41;5.13;;;1.80;;
10801;SDS011;5453;50.852;7.102;2023-08-07T01:28:16;11.98;;;2.47;;
10801;SDS011;5453;50.852;7.102;2023-08-07T01:30:59;7.25;;;2.25;;
10801;SDS011;5453;50.852;7.102;2023-08-07T01:33:38;8.82;;;2.13;;
10801;SDS011;5453;50.852;7.102;2023-08-07T01:36:19;6.30;;;1.85;;
10801;SDS011;5453;50.852;7.102;2023-08-07T01:38:57;4.43;;;1.33;;
10801;SDS011;5453;50.852;7.102;2023-08-07T01:41:30;6.38;;;1.42;;
10801;SDS011;5453;50.852;7.102;2023-08-07T01:44:03;6.82;;;1.58;;
10801;SDS011;5453;50.852;7.102;2023-08-07T01:46:36;6.07;;;2.20;;
10801;SDS011;5453;50.852;7.102;2023-08-07T01:49:08;8.20;;;1.75;;
10801;SDS011;5453;50.852;7.102;2023-08-07T01:51:45;5.18;;;1.88;;
10801;SDS011;5453;50.852;7.102;2023-08-07T01:54:18;8.30;;;2.17;;
10801;SDS011;5453;50.852;7.102;2023-08-07T01:56:51;11.18;;;2.45;;
10801;SDS011;5453;50.852;7.102;2023-08-07T01:59:24;8.10;;;2.00;;
10801;SDS011;5453;50.852;7.102;2023-08-07T02:01:56;8.18;;;2.58;;
10801;SDS011;5453;50.852;7.102;2023-08-07T02:04:29;4.25;;;1.60;;
10801;SDS011;5453;50.852;7.102;2023-08-07T02:07:01;5.13;;;2.13;;
10801;SDS011;5453;50.852;7.102;2023-08-07T02:09:39;6.00;;;1.88;;
10801;SDS011;5453;50.852;7.102;2023-08-07T02:12:12;9.18;;;1.90;;
10801;SDS011;5453;50.852;7.102;2023-08-07T02:14:45;5.63;;;1.90;;
10801;SDS011;5453;50.852;7.102;2023-08-07T02:17:20;8.68;;;2.05;;
10801;SDS011;5453;50.852;7.102;2023-08-07T02:19:56;6.32;;;2.00;;
10801;SDS011;5453;50.852;7.102;2023-08-07T02:22:28;5.10;;;1.65;;
10801;SDS011;5453;50.852;7.102;2023-08-07T02:25:02;4.93;;;1.95;;
10801;SDS011;5453;50.852;7.102;2023-08-07T02:27:35;4.72;;;1.73;;
10801;SDS011;5453;50.852;7.102;2023-08-07T02:30:09;6.03;;;1.75;;
10801;SDS011;5453;50.852;7.102;2023-08-07T02:32:43;5.43;;;1.77;;
10801;SDS011;5453;50.852;7.102;2023-08-07T02:35:16;5.95;;;1.70;;
10801;SDS011;5453;50.852;7.102;2023-08-07T02:37:49;8.90;;;2.40;;
10801;SDS011;5453;50.852;7.102;2023-08-07T02:40:22;5.90;;;2.58;;
10801;SDS011;5453;50.852;7.102;2023-08-07T02:42:55;6.60;;;1.85;;
10801;SDS011;5453;50.852;7.102;2023-08-07T02:45:27;5.28;;;1.92;;
10801;SDS011;5453;50.852;7.102;2023-08-07T02:47:59;5.43;;;2.00;;
10801;SDS011;5453;50.852;7.102;2023-08-07T02:50:32;6.05;;;2.00;;
10801;SDS011;5453;50.852;7.102;2023-08-07T02:53:04;4.18;;;1.70;;
10801;SDS011;5453;50.852;7.102;2023-08-07T02:55:38;7.90;;;2.15;;
10801;SDS011;5453;50.852;7.102;2023-08-07T02:58:13;4.32;;;1.90;;
10801;SDS011;5453;50.852;7.102;2023-08-07T03:00:46;6.97;;;1.77;;
10801;SDS011;5453;50.852;7.102;2023-08-07T03:03:18;7.32;;;1.92;;
10801;SDS011;5453;50.852;7.102;2023-08-07T03:05:52;7.35;;;1.80;;
10801;SDS011;5453;50.852;7.102;2023-08-07T03:08:24;5.70;;;1.85;;
10801;SDS011;5453;50.852;7.102;2023-08-07T03:10:58;4.05;;;1.58;;
10801;SDS011;5453;50.852;7.102;2023-08-07T03:13:31;6.28;;;1.73;;
10801;SDS011;5453;50.852;7.102;2023-08-07T03:16:04;8.25;;;2.00;;
10801;SDS011;5453;50.852;7.102;2023-08-07T03:18:38;6.22;;;1.83;;
10801;SDS011;5453;50.852;7.102;2023-08-07T03:21:10;8.00;;;2.30;;
10801;SDS011;5453;50.852;7.102;2023-08-07T03:23:44;5.60;;;1.73;;
10801;SDS011;5453;50.852;7.102;2023-08-07T03:26:18;9.98;;;2.72;;
10801;SDS011;5453;50.852;7.102;2023-08-07T03:28:52;5.43;;;1.90;;
10801;SDS011;5453;50.852;7.102;2023-08-07T03:31:25;3.72;;;1.92;;
10801;SDS011;5453;50.852;7.102;2023-08-07T03:34:00;6.05;;;1.95;;
10801;SDS011;5453;50.852;7.102;2023-08-07T03:36:33;4.30;;;1.92;;
10801;SDS011;5453;50.852;7.102;2023-08-07T03:39:05;7.35;;;2.28;;
10801;SDS011;5453;50.852;7.102;2023-08-07T03:41:39;9.68;;;2.05;;
10801;SDS011;5453;50.852;7.102;2023-08-07T03:44:15;7.65;;;2.17;;
10801;SDS011;5453;50.852;7.102;2023-08-07T03:46:47;7.38;;;2.50;;
10801;SDS011;5453;50.852;7.102;2023-08-07T03:49:24;6.57;;;2.50;;
10801;SDS011;5453;50.852;7.102;2023-08-07T03:51:58;6.30;;;2.22;;
10801;SDS011;5453;50.852;7.102;2023-08-07T03:54:30;4.30;;;1.83;;
10801;SDS011;5453;50.852;7.102;2023-08-07T03:57:05;5.97;;;2.40;;
10801;SDS011;5453;50.852;7.102;2023-08-07T03:59:38;7.60;;;2.20;;
10801;SDS011;5453;50.852;7.102;2023-08-07T04:02:14;5.07;;;2.00;;
10801;SDS011;5453;50.852;7.102;2023-08-07T04:04:49;6.45;;;2.13;;
10801;SDS011;5453;50.852;7.102;2023-08-07T04:07:22;8.52;;;2.42;;
10801;SDS011;5453;50.852;7.102;2023-08-07T04:09:54;10.05;;;2.58;;
10801;SDS011;5453;50.852;7.102;2023-08-07T04:12:28;5.55;;;2.22;;
10801;SDS011;5453;50.852;7.102;2023-08-07T04:15:00;7.20;;;2.83;;
10801;SDS011;5453;50.852;7.102;2023-08-07T04:17:32;5.68;;;1.80;;
10801;SDS011;5453;50.852;7.102;2023-08-07T04:20:06;6.28;;;2.05;;
10801;SDS011;5453;50.852;7.102;2023-08-07T04:22:40;7.65;;;2.00;;
10801;SDS011;5453;50.852;7.102;2023-08-07T04:25:13;6.55;;;2.08;;
10801;SDS011;5453;50.852;7.102;2023-08-07T04:27:47;8.77;;;1.85;;
10801;SDS011;5453;50.852;7.102;2023-08-07T04:30:19;5.18;;;2.08;;
10801;SDS011;5453;50.852;7.102;2023-08-07T04:32:52;6.47;;;2.08;;
10801;SDS011;5453;50.852;7.102;2023-08-07T04:35:25;7.88;;;2.15;;
10801;SDS011;5453;50.852;7.102;2023-08-07T04:37:58;7.82;;;2.00;;
10801;SDS011;5453;50.852;7.102;2023-08-07T04:40:31;4.70;;;2.08;;
10801;SDS011;5453;50.852;7.102;2023-08-07T04:43:05;5.65;;;1.88;;
10801;SDS011;5453;50.852;7.102;2023-08-07T04:45:37;6.65;;;2.33;;
10801;SDS011;5453;50.852;7.102;2023-08-07T04:48:10;5.32;;;2.13;;
10801;SDS011;5453;50.852;7.102;2023-08-07T04:50:42;6.47;;;2.50;;
10801;SDS011;5453;50.852;7.102;2023-08-07T04:53:15;10.27;;;2.33;;
10801;SDS011;5453;50.852;7.102;2023-08-07T04:55:47;7.97;;;2.83;;
10801;SDS011;5453;50.852;7.102;2023-08-07T04:58:21;10.07;;;2.92;;
10801;SDS011;5453;50.852;7.102;2023-08-07T05:00:54;7.38;;;2.53;;
10801;SDS011;5453;50.852;7.102;2023-08-07T05:03:27;6.25;;;2.67;;
10801;SDS011;5453;50.852;7.102;2023-08-07T05:06:01;9.32;;;2.85;;
10801;SDS011;5453;50.852;7.102;2023-08-07T05:08:33;9.60;;;2.90;;
10801;SDS011;5453;50.852;7.102;2023-08-07T05:11:06;6.28;;;2.92;;
10801;SDS011;5453;50.852;7.102;2023-08-07T05:13:39;8.10;;;2.63;;
10801;SDS011;5453;50.852;7.102;2023-08-07T05:16:12;9.43;;;2.63;;
10801;SDS011;5453;50.852;7.102;2023-08-07T05:18:44;6.55;;;3.20;;
10801;SDS011;5453;50.852;7.102;2023-08-07T05:21:17;9.23;;;2.88;;
10801;SDS011;5453;50.852;7.102;2023-08-07T05:23:49;11.90;;;3.22;;
10801;SDS011;5453;50.852;7.102;2023-08-07T05:26:23;10.20;;;3.10;;
10801;SDS011;5453;50.852;7.102;2023-08-07T05:28:57;6.53;;;2.50;;
10801;SDS011;5453;50.852;7.102;2023-08-07T05:31:29;6.07;;;2.60;;
10801;SDS011;5453;50.852;7.102;2023-08-07T05:34:02;5.55;;;2.50;;
10801;SDS011;5453;50.852;7.102;2023-08-07T05:36:34;5.60;;;2.28;;
10801;SDS011;5453;50.852;7.102;2023-08-07T05:39:08;6.65;;;2.05;;
10801;SDS011;5453;50.852;7.102;2023-08-07T05:41:40;4.32;;;1.83;;
10801;SDS011;5453;50.852;7.102;2023-08-07T05:44:14;8.07;;;2.40;;
10801;SDS011;5453;50.852;7.102;2023-08-07T05:46:46;8.40;;;2.20;;
10801;SDS011;5453;50.852;7.102;2023-08-07T05:49:19;7.03;;;2.53;;
10801;SDS011;5453;50.852;7.102;2023-08-07T05:51:52;4.80;;;1.73;;
10801;SDS011;5453;50.852;7.102;2023-08-07T05:54:25;5.90;;;1.90;;
10801;SDS011;5453;50.852;7.102;2023-08-07T05:56:57;6.30;;;1.98;;
10801;SDS011;5453;50.852;7.102;2023-08-07T05:59:31;6.57;;;1.98;;
10801;SDS011;5453;50.852;7.102;2023-08-07T06:04:37;5.40;;;2.08;;
10801;SDS011;5453;50.852;7.102;2023-08-07T06:07:10;5.65;;;1.85;;
10801;SDS011;5453;50.852;7.102;2023-08-07T06:09:43;8.43;;;2.05;;
10801;SDS011;5453;50.852;7.102;2023-08-07T06:12:15;5.40;;;2.13;;
10801;SDS011;5453;50.852;7.102;2023-08-07T06:14:49;10.52;;;2.33;;
10801;SDS011;5453;50.852;7.102;2023-08-07T06:17:21;7.90;;;1.90;;
10801;SDS011;5453;50.852;7.102;2023-08-07T06:19:54;7.28;;;1.98;;
10801;SDS011;5453;50.852;7.102;2023-08-07T06:22:29;8.45;;;2.60;;
10801;SDS011;5453;50.852;7.102;2023-08-07T06:25:03;8.05;;;2.10;;
10801;SDS011;5453;50.852;7.102;2023-08-07T06:27:37;6.45;;;1.83;;
10801;SDS011;5453;50.852;7.102;2023-08-07T06:30:11;5.95;;;1.88;;
10801;SDS011;5453;50.852;7.102;2023-08-07T06:32:45;4.22;;;1.90;;
10801;SDS011;5453;50.852;7.102;2023-08-07T06:35:17;6.82;;;2.00;;
10801;SDS011;5453;50.852;7.102;2023-08-07T06:37:50;5.20;;;1.70;;
10801;SDS011;5453;50.852;7.102;2023-08-07T06:40:25;10.02;;;2.42;;
10801;SDS011;5453;50.852;7.102;2023-08-07T06:42:57;7.53;;;2.00;;
10801;SDS011;5453;50.852;7.102;2023-08-07T06:45:31;5.13;;;1.67;;
10801;SDS011;5453;50.852;7.102;2023-08-07T06:48:03;7.50;;;2.30;;
10801;SDS011;5453;50.852;7.102;2023-08-07T06:50:36;4.43;;;1.95;;
10801;SDS011;5453;50.852;7.102;2023-08-07T06:53:08;5.45;;;2.13;;
10801;SDS011;5453;50.852;7.102;2023-08-07T06:55:41;7.57;;;2.17;;
10801;SDS011;5453;50.852;7.102;2023-08-07T06:58:16;5.97;;;2.22;;
10801;SDS011;5453;50.852;7.102;2023-08-07T07:00:50;4.38;;;1.58;;
10801;SDS011;5453;50.852;7.102;2023-08-07T07:03:23;6.85;;;1.90;;
10801;SDS011;5453;50.852;7.102;2023-08-07T07:05:55;6.78;;;2.08;;
10801;SDS011;5453;50.852;7.102;2023-08-07T07:08:28;5.63;;;2.40;;
10801;SDS011;5453;50.852;7.102;2023-08-07T07:11:01;6.97;;;2.35;;
10801;SDS011;5453;50.852;7.102;2023-08-07T07:13:34;9.32;;;1.92;;
10801;SDS011;5453;50.852;7.102;2023-08-07T07:16:08;7.47;;;2.50;;
10801;SDS011;5453;50.852;7.102;2023-08-07T07:18:42;11.15;;;2.42;;
10801;SDS011;5453;50.852;7.102;2023-08-07T07:21:14;6.32;;;2.60;;
10801;SDS011;5453;50.852;7.102;2023-08-07T07:23:46;9.25;;;2.40;;
10801;SDS011;5453;50.852;7.102;2023-08-07T07:26:19;5.63;;;2.20;;
10801;SDS011;5453;50.852;7.102;2023-08-07T07:28:51;8.88;;;2.35;;
10801;SDS011;5453;50.852;7.102;2023-08-07T07:31:25;7.38;;;2.00;;
10801;SDS011;5453;50.852;7.102;2023-08-07T07:33:58;4.28;;;2.08;;
10801;SDS011;5453;50.852;7.102;2023-08-07T07:36:30;6.28;;;2.08;;
10801;SDS011;5453;50.852;7.102;2023-08-07T07:39:03;6.85;;;2.63;;
10801;SDS011;5453;50.852;7.102;2023-08-07T07:41:35;9.65;;;2.70;;
10801;SDS011;5453;50.852;7.102;2023-08-07T07:44:07;7.57;;;2.63;;
10801;SDS011;5453;50.852;7.102;2023-08-07T07:46:41;7.50;;;2.38;;
10801;SDS011;5453;50.852;7.102;2023-08-07T07:49:14;9.43;;;2.53;;
10801;SDS011;5453;50.852;7.102;2023-08-07T07:51:47;8.10;;;2.40;;
10801;SDS011;5453;50.852;7.102;2023-08-07T07:54:19;8.50;;;2.40;;
10801;SDS011;5453;50.852;7.102;2023-08-07T07:56:52;8.68;;;2.38;;
10801;SDS011;5453;50.852;7.102;2023-08-07T07:59:24;5.25;;;1.83;;
10801;SDS011;5453;50.852;7.102;2023-08-07T08:01:58;8.25;;;1.95;;
10801;SDS011;5453;50.852;7.102;2023-08-07T08:04:31;7.35;;;2.13;;
10801;SDS011;5453;50.852;7.102;2023-08-07T08:07:05;5.20;;;2.13;;
10801;SDS011;5453;50.852;7.102;2023-08-07T08:09:38;8.48;;;2.33;;
10801;SDS011;5453;50.852;7.102;2023-08-07T08:12:10;5.43;;;2.17;;
10801;SDS011;5453;50.852;7.102;2023-08-07T08:14:45;5.28;;;2.30;;
10801;SDS011;5453;50.852;7.102;2023-08-07T08:17:19;7.70;;;2.55;;
10801;SDS011;5453;50.852;7.102;2023-08-07T08:19:51;7.22;;;2.22;;
10801;SDS011;5453;50.852;7.102;2023-08-07T08:22:27;6.53;;;1.67;;
10801;SDS011;5453;50.852;7.102;2023-08-07T08:24:59;8.02;;;2.20;;
10801;SDS011;5453;50.852;7.102;2023-08-07T08:27:32;14.23;;;3.20;;
10801;SDS011;5453;50.852;7.102;2023-08-07T08:30:05;14.18;;;2.85;;
10801;SDS011;5453;50.852;7.102;2023-08-07T08:32:43;7.78;;;2.15;;
10801;SDS011;5453;50.852;7.102;2023-08-07T08:35:16;7.97;;;1.98;;
10801;SDS011;5453;50.852;7.102;2023-08-07T08:37:48;6.63;;;1.63;;
10801;SDS011;5453;50.852;7.102;2023-08-07T08:40:21;7.00;;;1.73;;
10801;SDS011;5453;50.852;7.102;2023-08-07T08:42:53;6.97;;;1.63;;
10801;SDS011;5453;50.852;7.102;2023-08-07T08:45:28;13.23;;;2.28;;
10801;SDS011;5453;50.852;7.102;2023-08-07T08:48:05;6.65;;;1.75;;
10801;SDS011;5453;50.852;7.102;2023-08-07T08:50:41;7.50;;;2.20;;
10801;SDS011;5453;50.852;7.102;2023-08-07T08:53:14;5.20;;;1.67;;
10801;SDS011;5453;50.852;7.102;2023-08-07T08:55:48;9.13;;;1.88;;
10801;SDS011;5453;50.852;7.102;2023-08-07T08:58:21;6.97;;;1.73;;
10801;SDS011;5453;50.852;7.102;2023-08-07T09:01:03;6.63;;;1.73;;
10801;SDS011;5453;50.852;7.102;2023-08-07T09:03:37;8.32;;;2.13;;
10801;SDS011;5453;50.852;7.102;2023-08-07T09:06:10;7.78;;;2.08;;
10801;SDS011;5453;50.852;7.102;2023-08-07T09:08:47;4.65;;;1.75;;
10801;SDS011;5453;50.852;7.102;2023-08-07T09:11:21;6.60;;;1.90;;
10801;SDS011;5453;50.852;7.102;2023-08-07T09:13:53;4.80;;;1.73;;
10801;SDS011;5453;50.852;7.102;2023-08-07T09:16:31;6.43;;;1.98;;
10801;SDS011;5453;50.852;7.102;2023-08-07T09:19:05;6.50;;;1.58;;
10801;SDS011;5453;50.852;7.102;2023-08-07T09:21:38;5.43;;;2.60;;
10801;SDS011;5453;50.852;7.102;2023-08-07T09:24:10;7.68;;;1.70;;
10801;SDS011;5453;50.852;7.102;2023-08-07T09:26:43;4.63;;;1.85;;
10801;SDS011;5453;50.852;7.102;2023-08-07T09:29:15;5.72;;;1.90;;
10801;SDS011;5453;50.852;7.102;2023-08-07T09:31:48;7.80;;;2.30;;
10801;SDS011;5453;50.852;7.102;2023-08-07T09:34:22;4.70;;;1.80;;
10801;SDS011;5453;50.852;7.102;2023-08-07T09:36:58;10.32;;;1.90;;
10801;SDS011;5453;50.852;7.102;2023-08-07T09:39:30;3.10;;;1.63;;
10801;SDS011;5453;50.852;7.102;2023-08-07T09:42:03;6.72;;;1.60;;
10801;SDS011;5453;50.852;7.102;2023-08-07T09:44:39;5.30;;;1.42;;
10801;SDS011;5453;50.852;7.102;2023-08-07T09:47:12;3.97;;;1.63;;
10801;SDS011;5453;50.852;7.102;2023-08-07T09:49:47;5.68;;;1.35;;
10801;SDS011;5453;50.852;7.102;2023-08-07T09:52:19;2.90;;;1.65;;
10801;SDS011;5453;50.852;7.102;2023-08-07T09:54:55;6.93;;;1.58;;
10801;SDS011;5453;50.852;7.102;2023-08-07T09:57:28;5.30;;;1.58;;
10801;SDS011;5453;50.852;7.102;2023-08-07T10:00:04;7.93;;;1.90;;
10801;SDS011;5453;50.852;7.102;2023-08-07T10:02:45;6.63;;;1.83;;
10801;SDS011;5453;50.852;7.102;2023-08-07T10:05:20;4.07;;;1.55;;
10801;SDS011;5453;50.852;7.102;2023-08-07T10:07:53;6.22;;;1.40;;
10801;SDS011;5453;50.852;7.102;2023-08-07T10:10:26;7.50;;;1.83;;
10801;SDS011;5453;50.852;7.102;2023-08-07T10:13:00;5.50;;;1.60;;
10801;SDS011;5453;50.852;7.102;2023-08-07T10:15:32;5.00;;;1.50;;
10801;SDS011;5453;50.852;7.102;2023-08-07T10:18:05;6.78;;;1.52;;
10801;SDS011;5453;50.852;7.102;2023-08-07T10:20:39;5.07;;;1.55;;
10801;SDS011;5453;50.852;7.102;2023-08-07T10:23:14;3.72;;;1.35;;
10801;SDS011;5453;50.852;7.102;2023-08-07T10:25:47;4.78;;;1.90;;
10801;SDS011;5453;50.852;7.102;2023-08-07T10:28:21;5.13;;;1.60;;
10801;SDS011;5453;50.852;7.102;2023-08-07T10:30:59;5.00;;;1.55;;
10801;SDS011;5453;50.852;7.102;2023-08-07T10:33:32;5.20;;;1.83;;
10801;SDS011;5453;50.852;7.102;2023-08-07T10:36:09;4.57;;;1.65;;
10801;SDS011;5453;50.852;7.102;2023-08-07T10:38:48;6.07;;;2.17;;
10801;SDS011;5453;50.852;7.102;2023-08-07T10:41:21;3.65;;;1.60;;
10801;SDS011;5453;50.852;7.102;2023-08-07T10:43:54;4.70;;;1.58;;
10801;SDS011;5453;50.852;7.102;2023-08-07T10:46:27;2.53;;;1.38;;
10801;SDS011;5453;50.852;7.102;2023-08-07T10:49:32;5.53;;;1.50;;
10801;SDS011;5453;50.852;7.102;2023-08-07T10:52:09;5.70;;;1.60;;
10801;SDS011;5453;50.852;7.102;2023-08-07T10:54:48;5.88;;;1.35;;
10801;SDS011;5453;50.852;7.102;2023-08-07T10:57:21;5.68;;;1.52;;
10801;SDS011;5453;50.852;7.102;2023-08-07T11:00:00;3.55;;;1.35;;
10801;SDS011;5453;50.852;7.102;2023-08-07T11:02:36;3.42;;;1.73;;
10801;SDS011;5453;50.852;7.102;2023-08-07T11:05:10;4.28;;;1.15;;
10801;SDS011;5453;50.852;7.102;2023-08-07T11:07:45;3.13;;;1.40;;
10801;SDS011;5453;50.852;7.102;2023-08-07T11:12:57;2.88;;;1.30;;
10801;SDS011;5453;50.852;7.102;2023-08-07T11:15:30;3.63;;;1.63;;
10801;SDS011;5453;50.852;7.102;2023-08-07T11:18:04;4.55;;;0.95;;
10801;SDS011;5453;50.852;7.102;2023-08-07T11:20:37;4.13;;;1.27;;
10801;SDS011;5453;50.852;7.102;2023-08-07T11:23:12;4.07;;;1.30;;
10801;SDS011;5453;50.852;7.102;2023-08-07T11:25:44;4.15;;;1.58;;
10801;SDS011;5453;50.852;7.102;2023-08-07T11:28:17;3.83;;;1.30;;
10801;SDS011;5453;50.852;7.102;2023-08-07T11:30:51;3.30;;;1.38;;
10801;SDS011;5453;50.852;7.102;2023-08-07T11:33:26;3.55;;;1.45;;
10801;SDS011;5453;50.852;7.102;2023-08-07T11:35:59;4.35;;;1.33;;
10801;SDS011;5453;50.852;7.102;2023-08-07T11:38:33;6.18;;;1.67;;
10801;SDS011;5453;50.852;7.102;2023-08-07T11:41:12;4.57;;;1.58;;
10801;SDS011;5453;50.852;7.102;2023-08-07T11:43:46;3.67;;;1.20;;
10801;SDS011;5453;50.852;7.102;2023-08-07T11:46:18;3.05;;;1.17;;
10801;SDS011;5453;50.852;7.102;2023-08-07T11:48:52;3.80;;;1.20;;
10801;SDS011;5453;50.852;7.102;2023-08-07T11:51:25;4.63;;;1.50;;
10801;SDS011;5453;50.852;7.102;2023-08-07T11:54:02;4.95;;;1.42;;
10801;SDS011;5453;50.852;7.102;2023-08-07T11:56:35;4.40;;;1.40;;
10801;SDS011;5453;50.852;7.102;2023-08-07T11:59:07;3.40;;;1.15;;
10801;SDS011;5453;50.852;7.102;2023-08-07T12:01:39;5.13;;;1.33;;
10801;SDS011;5453;50.852;7.102;2023-08-07T12:04:12;3.25;;;1.27;;
10801;SDS011;5453;50.852;7.102;2023-08-07T12:06:52;5.22;;;1.15;;
10801;SDS011;5453;50.852;7.102;2023-08-07T12:09:27;2.90;;;1.23;;
10801;SDS011;5453;50.852;7.102;2023-08-07T12:11:59;5.38;;;1.20;;
10801;SDS011;5453;50.852;7.102;2023-08-07T12:14:35;4.95;;;1.33;;
10801;SDS011;5453;50.852;7.102;2023-08-07T12:17:10;5.43;;;1.33;;
10801;SDS011;5453;50.852;7.102;2023-08-07T12:19:42;4.05;;;1.17;;
10801;SDS011;5453;50.852;7.102;2023-08-07T12:22:18;3.20;;;1.00;;
10801;SDS011;5453;50.852;7.102;2023-08-07T12:24:53;2.42;;;1.33;;
10801;SDS011;5453;50.852;7.102;2023-08-07T12:27:25;4.30;;;1.48;;
10801;SDS011;5453;50.852;7.102;2023-08-07T12:29:58;3.22;;;1.20;;
10801;SDS011;5453;50.852;7.102;2023-08-07T12:32:30;4.70;;;1.00;;
10801;SDS011;5453;50.852;7.102;2023-08-07T12:35:03;4.40;;;1.15;;
10801;SDS011;5453;50.852;7.102;2023-08-07T12:37:38;3.45;;;1.27;;
10801;SDS011;5453;50.852;7.102;2023-08-07T12:40:12;3.03;;;1.52;;
10801;SDS011;5453;50.852;7.102;2023-08-07T12:42:52;2.90;;;1.20;;
10801;SDS011;5453;50.852;7.102;2023-08-07T12:45:25;3.15;;;1.05;;
10801;SDS011;5453;50.852;7.102;2023-08-07T12:47:57;4.57;;;1.42;;
10801;SDS011;5453;50.852;7.102;2023-08-07T12:50:30;5.63;;;1.38;;
10801;SDS011;5453;50.852;7.102;2023-08-07T12:53:02;3.05;;;0.93;;
10801;SDS011;5453;50.852;7.102;2023-08-07T12:55:37;3.00;;;1.40;;
10801;SDS011;5453;50.852;7.102;2023-08-07T12:58:09;2.67;;;1.20;;
10801;SDS011;5453;50.852;7.102;2023-08-07T13:00:42;3.30;;;1.30;;
10801;SDS011;5453;50.852;7.102;2023-08-07T13:03:14;3.28;;;1.33;;
10801;SDS011;5453;50.852;7.102;2023-08-07T13:05:47;6.00;;;1.30;;
10801;SDS011;5453;50.852;7.102;2023-08-07T13:08:19;3.53;;;1.25;;
10801;SDS011;5453;50.852;7.102;2023-08-07T13:10:53;3.13;;;1.27;;
10801;SDS011;5453;50.852;7.102;2023-08-07T13:13:25;2.45;;;1.17;;
10801;SDS011;5453;50.852;7.102;2023-08-07T13:15:58;3.20;;;1.42;;
10801;SDS011;5453;50.852;7.102;2023-08-07T13:18:31;3.47;;;1.20;;
10801;SDS011;5453;50.852;7.102;2023-08-07T13:21:03;4.10;;;1.23;;
10801;SDS011;5453;50.852;7.102;2023-08-07T13:23:35;4.88;;;1.48;;
10801;SDS011;5453;50.852;7.102;2023-08-07T13:26:09;3.10;;;1.30;;
10801;SDS011;5453;50.852;7.102;2023-08-07T13:28:42;3.13;;;1.45;;
10801;SDS011;5453;50.852;7.102;2023-08-07T13:31:17;3.95;;;1.20;;
10801;SDS011;5453;50.852;7.102;2023-08-07T13:33:49;3.17;;;1.40;;
10801;SDS011;5453;50.852;7.102;2023-08-07T13:36:22;3.63;;;1.23;;
10801;SDS011;5453;50.852;7.102;2023-08-07T13:38:54;5.13;;;1.35;;
10801;SDS011;5453;50.852;7.102;2023-08-07T13:41:28;3.78;;;1.20;;
10801;SDS011;5453;50.852;7.102;2023-08-07T13:44:01;3.05;;;1.08;;
10801;SDS011;5453;50.852;7.102;2023-08-07T13:46:33;5.22;;;1.50;;
10801;SDS011;5453;50.852;7.102;2023-08-07T13:49:09;4.03;;;1.67;;
10801;SDS011;5453;50.852;7.102;2023-08-07T13:51:41;2.95;;;1.38;;
10801;SDS011;5453;50.852;7.102;2023-08-07T13:54:13;3.35;;;1.50;;
10801;SDS011;5453;50.852;7.102;2023-08-07T13:56:47;4.57;;;1.20;;
10801;SDS011;5453;50.852;7.102;2023-08-07T13:59:20;4.03;;;1.40;;
10801;SDS011;5453;50.852;7.102;2023-08-07T14:01:52;4.05;;;1.33;;
10801;SDS011;5453;50.852;7.102;2023-08-07T14:04:26;5.10;;;1.35;;
10801;SDS011;5453;50.852;7.102;2023-08-07T14:06:59;3.20;;;1.30;;
10801;SDS011;5453;50.852;7.102;2023-08-07T14:09:32;3.83;;;1.35;;
10801;SDS011;5453;50.852;7.102;2023-08-07T14:12:06;4.28;;;1.33;;
10801;SDS011;5453;50.852;7.102;2023-08-07T14:14:39;3.78;;;1.45;;
10801;SDS011;5453;50.852;7.102;2023-08-07T14:17:15;2.97;;;1.27;;
10801;SDS011;5453;50.852;7.102;2023-08-07T14:19:47;4.38;;;1.40;;
10801;SDS011;5453;50.852;7.102;2023-08-07T14:22:19;5.78;;;1.60;;
10801;SDS011;5453;50.852;7.102;2023-08-07T14:24:52;2.05;;;1.40;;
10801;SDS011;5453;50.852;7.102;2023-08-07T14:27:29;2.35;;;1.33;;
10801;SDS011;5453;50.852;7.102;2023-08-07T14:30:01;3.13;;;1.10;;
10801;SDS011;5453;50.852;7.102;2023-08-07T14:32:34;4.10;;;1.65;;
10801;SDS011;5453;50.852;7.102;2023-08-07T14:35:10;3.95;;;1.42;;
10801;SDS011;5453;50.852;7.102;2023-08-07T14:37:44;3.20;;;1.23;;
10801;SDS011;5453;50.852;7.102;2023-08-07T14:40:18;3.88;;;1.45;;
10801;SDS011;5453;50.852;7.102;2023-08-07T14:42:52;4.15;;;1.45;;
10801;SDS011;5453;50.852;7.102;2023-08-07T14:45:24;2.55;;;1.35;;
10801;SDS011;5453;50.852;7.102;2023-08-07T14:47:57;3.28;;;1.50;;
10801;SDS011;5453;50.852;7.102;2023-08-07T14:50:29;3.45;;;1.20;;
10801;SDS011;5453;50.852;7.102;2023-08-07T14:53:02;3.28;;;1.73;;
10801;SDS011;5453;50.852;7.102;2023-08-07T14:55:34;4.60;;;1.48;;
10801;SDS011;5453;50.852;7.102;2023-08-07T14:58:08;3.63;;;1.23;;
10801;SDS011;5453;50.852;7.102;2023-08-07T15:00:40;3.22;;;1.48;;
10801;SDS011;5453;50.852;7.102;2023-08-07T15:03:15;2.97;;;1.20;;
10801;SDS011;5453;50.852;7.102;2023-08-07T15:05:48;2.03;;;1.00;;
10801;SDS011;5453;50.852;7.102;2023-08-07T15:08:20;4.43;;;1.92;;
10801;SDS011;5453;50.852;7.102;2023-08-07T15:10:53;3.10;;;1.48;;
10801;SDS011;5453;50.852;7.102;2023-08-07T15:13:26;4.15;;;1.52;;
10801;SDS011;5453;50.852;7.102;2023-08-07T15:15:59;3.78;;;1.40;;
10801;SDS011;5453;50.852;7.102;2023-08-07T15:18:31;4.53;;;1.70;;
10801;SDS011;5453;50.852;7.102;2023-08-07T15:21:04;2.85;;;1.50;;
10801;SDS011;5453;50.852;7.102;2023-08-07T15:23:36;3.05;;;1.10;;
10801;SDS011;5453;50.852;7.102;2023-08-07T15:26:09;2.85;;;1.15;;
10801;SDS011;5453;50.852;7.102;2023-08-07T15:28:42;3.88;;;1.27;;
10801;SDS011;5453;50.852;7.102;2023-08-07T15:31:15;3.65;;;1.40;;
10801;SDS011;5453;50.852;7.102;2023-08-07T15:33:48;3.22;;;1.23;;
10801;SDS011;5453;50.852;7.102;2023-08-07T15:36:22;3.25;;;1.35;;
10801;SDS011;5453;50.852;7.102;2023-08-07T15:38:55;4.70;;;1.70;;
10801;SDS011;5453;50.852;7.102;2023-08-07T15:41:27;4.68;;;3.53;;
10801;SDS011;5453;50.852;7.102;2023-08-07T15:44:01;6.47;;;3.33;;